Dar Es Salaam, Tanzania

9:17 AM EAT on August 29, 2015 (GMT +0300)
Dar es Salaam International | | Change Station
CLOSE
Current Station
Airport
Location: Dar Es Salaam,
Elevation: 180 ft
Nearby Weather Stations

Elev 180 ft 6.88 °S, 39.20 °E | Updated 1 hour ago

Scattered Clouds
Scattered Clouds
75 °F
Feels Like 75 °F
N
4
Wind Variable Wind from South

Today
High -- | Low -- °F
--% Chance of Precip.
Yesterday
High -- | Low -- °F
Precip. -- in
6:25 AM 6:23 PM
Full, 100% visible
Pressure 30.06 in
Visibility 6.2 miles
Clouds Scattered Clouds 2300 ft
Scattered Clouds 8000 ft
Dew Point 70 °F
Humidity 83%
Rainfall 0.00 in
Snow Depth Not available.
UV 1 out of 12
Pollen Not available.
Air Quality Not available.
Flu Activity Not available.
METAR HTDA 290500Z 19003KT 9999 SCT023 SCT080 24/21 Q1018 NOSIG
Pressure 30.06 in
Visibility 6.2 miles
Clouds Scattered Clouds 2300 ft
Scattered Clouds 8000 ft
Dew Point 70 °F
Humidity 83%
Rainfall 0.00 in
Snow Depth Not available.
UV 1 out of 12
Pollen Not available.
Air Quality Not available.
Flu Activity Not available.
METAR HTDA 290500Z 19003KT 9999 SCT023 SCT080 24/21 Q1018 NOSIG

10-Day Weather Forecast

×

Almanac

Astronomy

Aug. 29, 2015 Rise Set
Actual Time
Civil Twilight
Nautical Twilight
Astronomical Twilight
Moon
Length of Visible Light
Length of Day
Tomorrow will be .
, % of the Moon is Illuminated

Today's Extremes

Country Highs Country Lows

Community

WunderPhotos

Upload Photos

1,850,622 photos uploaded!

WunderBlogs® & News

Nearby

Air Quality

  Air Quality AQ Index Pollutant
Not available.

Snow Depth

Station Depth Elevation

Earthquake Activity

City Distance Mag. Time & Date
Minimum magnitude displayed is 2.5.

Coastal Water Temperatures

Place Temperature

Stations

Nearby Weather Stations

Station Location Temp. Windchill Dew Point Humidity Wind Precip. Elev Updated Type